Time;durP1;ratioP1;P1;durP2;ratioP2;P2;SDS_P1;SDS_P2;PMS_P1;PMS_P2;Temp;Humidity;BMP_temperature;BMP_pressure;BME280_temperature;BME280_humidity;BME280_pressure;Samples;Min_cycle;Max_cycle;Signal;HPM_P1;HPM_P2
2022/10/10 00:01:13;;;;;;;6.75;5.15;;;;;;;;;;5052728;28;20452;-70
2022/10/10 00:03:39;;;;;;;5.82;5.18;;;;;;;;;;5035222;28;20103;-71
2022/10/10 00:06:04;;;;;;;10.45;5.15;;;;;;;;;;5035820;28;20455;-70
2022/10/10 00:08:30;;;;;;;7.63;5.53;;;;;;;;;;5053230;28;20514;-71
2022/10/10 00:10:55;;;;;;;6.20;5.60;;;;;;;;;;5052067;28;20025;-70
2022/10/10 00:13:21;;;;;;;7.38;5.20;;;;;;;;;;5052654;28;20049;-70
2022/10/10 00:15:46;;;;;;;8.85;5.60;;;;;;;;;;5035090;28;20487;-70
2022/10/10 00:18:11;;;;;;;7.60;5.60;;;;;;;;;;5053581;28;20070;-71
2022/10/10 00:20:37;;;;;;;7.47;5.30;;;;;;;;;;5053564;28;20033;-71
2022/10/10 00:23:02;;;;;;;6.18;5.15;;;;;;;;;;5053053;28;20082;-70
2022/10/10 00:25:28;;;;;;;6.97;5.15;;;;;;;;;;5051818;28;20036;-65
2022/10/10 00:27:53;;;;;;;6.45;5.55;;;;;;;;;;5035542;28;20021;-64
2022/10/10 00:30:18;;;;;;;7.03;5.57;;;;;;;;;;5053193;28;20029;-66
2022/10/10 00:32:44;;;;;;;8.23;5.70;;;;;;;;;;5053109;28;20092;-67
2022/10/10 00:35:09;;;;;;;7.45;5.32;;;;;;;;;;5053236;28;20463;-65
2022/10/10 00:37:34;;;;;;;7.28;5.53;;;;;;;;;;5055171;28;20032;-66
2022/10/10 00:40:00;;;;;;;7.32;5.72;;;;;;;;;;5056824;28;20032;-66
2022/10/10 00:42:25;;;;;;;7.20;5.50;;;;;;;;;;5038811;28;20013;-65
2022/10/10 00:45:09;;;;;;;6.15;5.15;;;;;;;;;;5056611;28;20033;-66
2022/10/10 00:47:35;;;;;;;7.32;5.75;;;;;;;;;;5057435;28;20064;-66
2022/10/10 00:50:00;;;;;;;6.43;5.70;;;;;;;;;;5056611;28;20098;-66
2022/10/10 00:52:26;;;;;;;5.80;4.85;;;;;;;;;;5038591;28;20091;-66
2022/10/10 00:54:51;;;;;;;7.80;5.70;;;;;;;;;;5056771;28;20396;-65
2022/10/10 00:57:16;;;;;;;5.78;5.18;;;;;;;;;;5056436;28;20025;-65
2022/10/10 00:59:44;;;;;;;6.85;5.82;;;;;;;;;;5038594;28;20029;-66
2022/10/10 01:02:09;;;;;;;6.10;5.50;;;;;;;;;;5056886;28;20029;-67
2022/10/10 01:04:40;;;;;;;6.25;5.43;;;;;;;;;;5056292;28;20016;-65
2022/10/10 01:07:11;;;;;;;9.07;6.43;;;;;;;;;;5056504;28;20025;-64
2022/10/10 01:09:38;;;;;;;6.53;5.72;;;;;;;;;;5054927;28;20059;-66
2022/10/10 01:12:22;;;;;;;7.75;5.93;;;;;;;;;;5056093;28;20031;-64
2022/10/10 01:14:48;;;;;;;6.85;5.22;;;;;;;;;;5016845;28;20108;-66
2022/10/10 01:17:18;;;;;;;9.68;6.15;;;;;;;;;;5016537;28;20076;-64
2022/10/10 01:19:56;;;;;;;8.20;5.80;;;;;;;;;;5016552;28;20112;-66
2022/10/10 01:22:48;;;;;;;8.52;5.72;;;;;;;;;;5016343;28;20034;-66
2022/10/10 01:25:32;;;;;;;8.93;6.15;;;;;;;;;;4986762;28;20048;-66
2022/10/10 01:28:09;;;;;;;7.20;5.70;;;;;;;;;;5016663;28;20449;-66
2022/10/10 01:30:35;;;;;;;7.43;5.75;;;;;;;;;;5015936;28;20364;-66
2022/10/10 01:33:00;;;;;;;8.80;6.20;;;;;;;;;;5016094;28;20034;-65
2022/10/10 01:35:38;;;;;;;6.30;5.68;;;;;;;;;;5015930;28;20075;-65
2022/10/10 01:38:16;;;;;;;8.65;6.22;;;;;;;;;;5016093;28;20105;-66
2022/10/10 01:40:41;;;;;;;8.15;6.10;;;;;;;;;;5016409;28;20037;-65
2022/10/10 01:43:07;;;;;;;8.13;6.50;;;;;;;;;;5016046;28;20029;-64
2022/10/10 01:45:33;;;;;;;7.38;6.15;;;;;;;;;;5016349;28;20045;-65
2022/10/10 01:48:03;;;;;;;6.82;5.85;;;;;;;;;;5015357;28;20014;-64
2022/10/10 01:50:29;;;;;;;10.10;6.38;;;;;;;;;;5015866;28;20088;-64
2022/10/10 01:53:01;;;;;;;7.03;5.63;;;;;;;;;;5014674;28;20030;-65
2022/10/10 01:55:31;;;;;;;7.82;6.10;;;;;;;;;;5015589;28;20423;-66
2022/10/10 02:00:37;;;;;;;10.20;6.20;;;;;;;;;;5013988;28;20069;-71
2022/10/10 02:03:03;;;;;;;;;;;;;;;;;;5015893;28;20048;-71
2022/10/10 02:05:51;;;;;;;9.52;6.20;;;;;;;;;;5015310;28;20360;-71
2022/10/10 02:08:20;;;;;;;8.30;5.80;;;;;;;;;;5005840;28;20081;-71
2022/10/10 02:10:47;;;;;;;9.00;5.68;;;;;;;;;;5015360;28;20021;-71
2022/10/10 02:13:14;;;;;;;6.28;5.38;;;;;;;;;;5015211;28;20461;-71
2022/10/10 02:15:42;;;;;;;9.95;5.68;;;;;;;;;;4997321;28;20013;-71
2022/10/10 02:18:08;;;;;;;7.82;5.85;;;;;;;;;;5015280;28;20030;-72
2022/10/10 02:20:34;;;;;;;5.85;5.07;;;;;;;;;;5013730;28;20421;-71
2022/10/10 02:23:00;;;;;;;7.18;5.60;;;;;;;;;;5014544;28;20029;-71
2022/10/10 02:25:27;;;;;;;7.15;5.57;;;;;;;;;;5014866;28;20113;-71
2022/10/10 02:27:58;;;;;;;6.97;5.30;;;;;;;;;;5014512;28;20533;-72
2022/10/10 02:30:24;;;;;;;8.98;6.13;;;;;;;;;;5015072;28;20385;-71
2022/10/10 02:33:00;;;;;;;5.75;5.10;;;;;;;;;;5014759;28;20068;-71
2022/10/10 02:35:27;;;;;;;6.18;5.40;;;;;;;;;;5015086;28;20065;-72
2022/10/10 02:37:53;;;;;;;6.38;5.78;;;;;;;;;;5014964;28;20526;-72
2022/10/10 02:40:20;;;;;;;7.72;6.10;;;;;;;;;;5014902;28;20104;-72
2022/10/10 02:42:46;;;;;;;6.22;5.40;;;;;;;;;;5014998;28;20157;-72
2022/10/10 02:45:12;;;;;;;6.22;5.63;;;;;;;;;;5015296;28;20460;-71
2022/10/10 02:47:37;;;;;;;7.72;5.68;;;;;;;;;;5013525;28;20049;-71
2022/10/10 02:50:03;;;;;;;8.13;5.60;;;;;;;;;;5013393;28;20040;-71
2022/10/10 02:52:28;;;;;;;7.57;5.72;;;;;;;;;;5014560;28;20394;-71
2022/10/10 02:54:54;;;;;;;5.65;5.13;;;;;;;;;;5015035;28;20483;-64
2022/10/10 02:57:19;;;;;;;6.43;5.82;;;;;;;;;;5015257;28;20440;-64
2022/10/10 02:59:45;;;;;;;10.52;5.80;;;;;;;;;;5013957;28;20050;-64
2022/10/10 03:02:10;;;;;;;5.32;4.80;;;;;;;;;;5014041;28;20030;-65
2022/10/10 03:04:36;;;;;;;5.43;4.93;;;;;;;;;;5015056;28;20021;-64
2022/10/10 03:07:02;;;;;;;8.00;5.38;;;;;;;;;;5014526;28;20527;-64
2022/10/10 03:09:27;;;;;;;6.72;5.15;;;;;;;;;;5014774;28;20026;-64
2022/10/10 03:11:53;;;;;;;5.57;4.70;;;;;;;;;;5013932;28;20443;-65
2022/10/10 03:14:18;;;;;;;5.25;4.78;;;;;;;;;;5014317;28;20364;-64
2022/10/10 03:16:43;;;;;;;5.45;4.65;;;;;;;;;;5013950;28;20166;-65
2022/10/10 03:19:09;;;;;;;4.88;4.32;;;;;;;;;;5014278;28;20080;-66
2022/10/10 03:21:34;;;;;;;4.93;4.43;;;;;;;;;;5014270;28;20017;-63
2022/10/10 03:24:00;;;;;;;5.15;4.25;;;;;;;;;;5014381;28;20038;-64
2022/10/10 03:26:25;;;;;;;6.13;4.32;;;;;;;;;;5014308;28;20018;-64
2022/10/10 03:28:50;;;;;;;5.30;3.95;;;;;;;;;;5013764;28;20117;-65
2022/10/10 03:31:16;;;;;;;5.00;4.00;;;;;;;;;;5014017;28;20021;-65
2022/10/10 03:33:42;;;;;;;5.13;4.00;;;;;;;;;;5013778;28;20036;-65
2022/10/10 03:36:07;;;;;;;9.43;4.30;;;;;;;;;;4996027;28;20068;-66
2022/10/10 03:38:32;;;;;;;4.40;3.72;;;;;;;;;;5013228;28;20040;-65
2022/10/10 03:40:58;;;;;;;4.57;3.58;;;;;;;;;;5014129;28;20053;-65
2022/10/10 03:43:23;;;;;;;4.00;3.60;;;;;;;;;;5013809;28;20030;-65
2022/10/10 03:45:49;;;;;;;4.95;3.40;;;;;;;;;;5013609;28;20439;-64
2022/10/10 03:48:15;;;;;;;4.13;3.72;;;;;;;;;;5014096;28;20030;-65
2022/10/10 03:50:40;;;;;;;4.65;3.60;;;;;;;;;;5014116;28;20030;-67
2022/10/10 03:53:05;;;;;;;6.20;3.75;;;;;;;;;;5013824;28;20039;-64
2022/10/10 03:55:31;;;;;;;4.68;3.85;;;;;;;;;;5014088;28;20033;-65
2022/10/10 03:57:56;;;;;;;4.50;3.58;;;;;;;;;;5013464;28;20048;-64
2022/10/10 04:00:22;;;;;;;3.63;3.33;;;;;;;;;;5013244;28;20389;-65
2022/10/10 04:02:47;;;;;;;3.67;3.10;;;;;;;;;;5013519;28;20026;-65
2022/10/10 04:05:13;;;;;;;3.50;3.20;;;;;;;;;;5012418;28;20025;-65
2022/10/10 04:07:40;;;;;;;3.67;3.35;;;;;;;;;;5004701;28;20380;-66
2022/10/10 04:10:06;;;;;;;3.40;3.10;;;;;;;;;;5010090;28;20032;-65
2022/10/10 04:12:31;;;;;;;3.75;3.45;;;;;;;;;;5010877;28;20188;-66
2022/10/10 04:14:57;;;;;;;5.60;3.22;;;;;;;;;;5011948;28;20317;-65
2022/10/10 04:17:22;;;;;;;4.03;3.40;;;;;;;;;;5011562;28;20369;-64
2022/10/10 04:19:47;;;;;;;4.93;2.83;;;;;;;;;;5012123;28;20030;-64
2022/10/10 04:22:13;;;;;;;3.47;3.13;;;;;;;;;;5012213;28;20033;-65
2022/10/10 04:24:38;;;;;;;3.35;3.05;;;;;;;;;;5011821;28;20084;-64
2022/10/10 04:27:04;;;;;;;4.40;2.90;;;;;;;;;;5012046;28;20033;-64
2022/10/10 04:29:29;;;;;;;3.20;2.90;;;;;;;;;;5012520;28;20037;-65
2022/10/10 04:31:54;;;;;;;3.05;2.83;;;;;;;;;;5013990;28;20033;-64
2022/10/10 04:34:20;;;;;;;3.15;2.85;;;;;;;;;;5012450;28;20546;-66
2022/10/10 04:36:45;;;;;;;3.78;2.88;;;;;;;;;;5012187;28;20049;-66
2022/10/10 04:39:10;;;;;;;7.75;3.13;;;;;;;;;;5011024;28;20062;-65
2022/10/10 04:41:36;;;;;;;3.72;3.00;;;;;;;;;;5013372;28;20392;-65
2022/10/10 04:44:01;;;;;;;6.25;4.00;;;;;;;;;;5012510;28;20563;-66
2022/10/10 04:46:26;;;;;;;3.70;2.90;;;;;;;;;;5012272;28;20500;-65
2022/10/10 04:48:52;;;;;;;4.90;2.85;;;;;;;;;;5010515;28;20160;-64
2022/10/10 04:51:17;;;;;;;3.10;2.60;;;;;;;;;;5012357;28;20475;-64
2022/10/10 04:53:43;;;;;;;3.10;2.60;;;;;;;;;;5012688;28;20373;-66
2022/10/10 04:56:08;;;;;;;3.50;3.03;;;;;;;;;;5012952;28;20491;-71
2022/10/10 04:58:33;;;;;;;3.25;2.95;;;;;;;;;;5010806;28;20104;-71
2022/10/10 05:00:59;;;;;;;2.88;2.60;;;;;;;;;;5012023;28;20540;-72
2022/10/10 05:03:24;;;;;;;3.83;2.50;;;;;;;;;;5010608;28;20034;-71
2022/10/10 05:05:50;;;;;;;3.53;2.80;;;;;;;;;;5010554;28;20037;-71
2022/10/10 05:08:17;;;;;;;3.10;2.70;;;;;;;;;;5011967;28;20057;-72
2022/10/10 05:10:42;;;;;;;3.17;2.88;;;;;;;;;;5013772;28;20042;-71
2022/10/10 05:13:12;;;;;;;2.80;2.60;;;;;;;;;;5013055;28;20098;-71
2022/10/10 05:15:38;;;;;;;4.45;2.80;;;;;;;;;;4995653;28;20503;-71
2022/10/10 05:18:03;;;;;;;4.22;2.92;;;;;;;;;;5012894;28;20049;-70
2022/10/10 05:20:29;;;;;;;3.65;2.55;;;;;;;;;;5012909;28;20741;-71
2022/10/10 05:22:54;;;;;;;2.78;2.58;;;;;;;;;;4993709;28;20465;-71
2022/10/10 05:25:20;;;;;;;3.50;2.58;;;;;;;;;;5012066;28;20117;-70
2022/10/10 05:27:46;;;;;;;2.78;2.42;;;;;;;;;;5013058;28;20024;-71
2022/10/10 05:30:12;;;;;;;2.85;2.58;;;;;;;;;;5014151;28;20038;-70
2022/10/10 05:32:37;;;;;;;4.05;2.65;;;;;;;;;;4996005;28;20530;-71
2022/10/10 05:35:03;;;;;;;3.63;3.08;;;;;;;;;;5011511;28;20037;-71
2022/10/10 05:37:29;;;;;;;4.28;2.67;;;;;;;;;;5012558;28;20032;-70
2022/10/10 05:39:54;;;;;;;3.67;3.00;;;;;;;;;;5015929;28;20030;-71
2022/10/10 05:42:20;;;;;;;3.60;2.70;;;;;;;;;;5015914;28;20072;-71
2022/10/10 05:44:45;;;;;;;3.28;2.97;;;;;;;;;;5015891;28;20388;-71
2022/10/10 05:47:10;;;;;;;4.00;2.92;;;;;;;;;;5014606;28;20017;-71
2022/10/10 05:49:36;;;;;;;3.78;3.00;;;;;;;;;;5015729;28;20091;-71
2022/10/10 05:52:01;;;;;;;6.20;3.65;;;;;;;;;;5015761;28;20372;-71
2022/10/10 05:54:27;;;;;;;6.20;4.00;;;;;;;;;;5014993;28;20032;-71
2022/10/10 05:56:52;;;;;;;7.97;3.53;;;;;;;;;;5014404;28;20427;-71
2022/10/10 05:59:18;;;;;;;8.48;5.10;;;;;;;;;;5012747;28;20038;-71
2022/10/10 06:01:43;;;;;;;9.27;6.03;;;;;;;;;;5013664;28;20031;-71
2022/10/10 06:04:08;;;;;;;7.45;4.75;;;;;;;;;;5012298;28;20022;-71
2022/10/10 06:06:33;;;;;;;6.68;3.20;;;;;;;;;;5014063;28;20109;-71
2022/10/10 06:08:59;;;;;;;6.32;4.20;;;;;;;;;;5013713;28;20022;-71
2022/10/10 06:11:24;;;;;;;4.43;3.75;;;;;;;;;;5014270;28;20026;-71
2022/10/10 06:13:53;;;;;;;5.15;3.90;;;;;;;;;;5014721;28;20097;-71
2022/10/10 06:16:21;;;;;;;7.97;4.63;;;;;;;;;;5015225;28;20034;-71
2022/10/10 06:18:46;;;;;;;5.32;3.33;;;;;;;;;;5015613;28;20109;-70
2022/10/10 06:21:12;;;;;;;6.53;3.85;;;;;;;;;;5015486;28;20045;-71
2022/10/10 06:23:37;;;;;;;4.25;3.30;;;;;;;;;;5015112;28;20096;-70
2022/10/10 06:26:03;;;;;;;3.85;3.50;;;;;;;;;;5013864;28;20037;-71
2022/10/10 06:28:28;;;;;;;5.72;3.70;;;;;;;;;;5015323;28;20080;-71
2022/10/10 06:30:57;;;;;;;4.85;3.88;;;;;;;;;;5014963;28;20018;-70
2022/10/10 06:33:22;;;;;;;6.03;3.67;;;;;;;;;;5015247;28;20067;-70
2022/10/10 06:35:48;;;;;;;6.25;3.75;;;;;;;;;;5015025;28;20034;-70
2022/10/10 06:38:14;;;;;;;4.72;3.22;;;;;;;;;;4997279;28;20109;-65
2022/10/10 06:40:40;;;;;;;3.80;3.10;;;;;;;;;;5014757;28;20388;-66
2022/10/10 06:43:10;;;;;;;4.95;3.35;;;;;;;;;;5015077;28;20097;-65
2022/10/10 06:45:43;;;;;;;3.58;2.58;;;;;;;;;;5013858;28;20064;-65
2022/10/10 06:48:09;;;;;;;2.83;2.63;;;;;;;;;;5014886;28;20116;-66
2022/10/10 06:50:35;;;;;;;2.85;2.65;;;;;;;;;;5015112;28;20046;-65
2022/10/10 06:53:02;;;;;;;3.08;2.60;;;;;;;;;;5014658;28;20034;-65
2022/10/10 06:55:27;;;;;;;3.63;2.50;;;;;;;;;;5014775;28;20068;-65
2022/10/10 06:57:53;;;;;;;3.15;2.85;;;;;;;;;;5014523;28;20034;-65
2022/10/10 07:00:18;;;;;;;2.95;2.50;;;;;;;;;;5014146;28;20485;-65
2022/10/10 07:02:44;;;;;;;5.28;2.60;;;;;;;;;;4997289;28;20087;-65
2022/10/10 07:05:10;;;;;;;2.35;2.15;;;;;;;;;;5013514;28;20026;-65
2022/10/10 07:07:37;;;;;;;4.07;2.00;;;;;;;;;;5014928;28;20057;-65
2022/10/10 07:10:02;;;;;;;4.15;2.38;;;;;;;;;;5014620;28;20021;-65
2022/10/10 07:12:28;;;;;;;2.78;2.58;;;;;;;;;;5014257;28;20144;-66
2022/10/10 07:14:53;;;;;;;3.72;2.00;;;;;;;;;;4996731;28;20022;-65
2022/10/10 07:17:18;;;;;;;5.47;2.25;;;;;;;;;;5012979;28;20030;-65
2022/10/10 07:19:44;;;;;;;1.95;1.85;;;;;;;;;;5014110;28;20037;-65
2022/10/10 07:22:09;;;;;;;2.25;2.00;;;;;;;;;;5014673;28;20033;-65
2022/10/10 07:24:35;;;;;;;2.05;1.95;;;;;;;;;;5012917;28;20018;-65
2022/10/10 07:27:01;;;;;;;2.88;2.20;;;;;;;;;;5012875;28;20456;-65
2022/10/10 07:29:27;;;;;;;2.35;2.10;;;;;;;;;;5012828;28;20026;-65
2022/10/10 07:31:52;;;;;;;3.80;1.88;;;;;;;;;;5013177;28;20038;-65
2022/10/10 07:34:18;;;;;;;3.40;2.10;;;;;;;;;;5045231;22;20026;-65
2022/10/10 07:36:47;;;;;;;2.90;1.88;;;;;;;;;;5104590;22;20060;-65
2022/10/10 07:39:13;;;;;;;1.85;1.75;;;;;;;;;;5076376;28;20097;-65
2022/10/10 07:41:38;;;;;;;1.65;1.55;;;;;;;;;;5059009;28;20016;-65
2022/10/10 07:44:03;;;;;;;2.05;1.88;;;;;;;;;;5092511;28;20063;-65
2022/10/10 07:46:31;;;;;;;2.35;1.98;;;;;;;;;;5093233;28;20103;-65
2022/10/10 07:48:56;;;;;;;1.77;1.67;;;;;;;;;;5076135;28;20024;-70
2022/10/10 07:51:22;;;;;;;4.70;1.80;;;;;;;;;;5111762;22;20052;-65
2022/10/10 07:53:48;;;;;;;2.97;1.80;;;;;;;;;;5073755;28;20028;-70
2022/10/10 07:56:13;;;;;;;3.60;1.83;;;;;;;;;;5073778;28;20032;-71
2022/10/10 07:58:39;;;;;;;2.08;1.45;;;;;;;;;;5088817;28;20115;-70
2022/10/10 08:01:05;;;;;;;3.85;1.85;;;;;;;;;;5088941;28;20027;-71
2022/10/10 08:03:31;;;;;;;2.10;1.88;;;;;;;;;;5073624;28;20029;-71
2022/10/10 08:05:56;;;;;;;2.97;1.92;;;;;;;;;;5073441;28;20016;-64
2022/10/10 08:08:21;;;;;;;2.42;1.77;;;;;;;;;;5073613;28;20032;-64
2022/10/10 08:10:47;;;;;;;1.90;1.70;;;;;;;;;;5073596;28;20033;-65
2022/10/10 08:13:12;;;;;;;2.05;1.58;;;;;;;;;;5073593;28;20029;-66
2022/10/10 08:15:38;;;;;;;3.17;1.90;;;;;;;;;;5073557;28;20397;-65
2022/10/10 08:18:04;;;;;;;2.38;1.75;;;;;;;;;;5072293;28;20036;-65
2022/10/10 08:20:29;;;;;;;1.85;1.75;;;;;;;;;;5073137;28;20025;-64
2022/10/10 08:22:54;;;;;;;3.20;2.90;;;;;;;;;;5073194;28;20024;-65
2022/10/10 08:25:19;;;;;;;3.60;1.50;;;;;;;;;;5071969;28;20340;-65
2022/10/10 08:27:45;;;;;;;4.75;1.40;;;;;;;;;;5073456;28;20162;-66
2022/10/10 08:30:10;;;;;;;3.28;1.65;;;;;;;;;;5073406;28;20155;-65
2022/10/10 08:32:36;;;;;;;3.38;1.88;;;;;;;;;;5088720;28;20173;-66
2022/10/10 08:35:01;;;;;;;2.20;1.70;;;;;;;;;;5088721;28;20024;-65
2022/10/10 08:37:27;;;;;;;1.60;1.30;;;;;;;;;;5073372;28;20032;-65
2022/10/10 08:39:53;;;;;;;3.85;1.30;;;;;;;;;;5072953;28;20025;-65
2022/10/10 08:42:38;;;;;;;2.15;2.05;;;;;;;;;;5073010;28;20382;-65
2022/10/10 08:45:10;;;;;;;3.53;1.88;;;;;;;;;;5072466;28;20032;-66
2022/10/10 08:47:35;;;;;;;3.00;1.90;;;;;;;;;;5073240;28;20028;-65
2022/10/10 08:50:02;;;;;;;2.20;1.90;;;;;;;;;;5072974;28;20029;-64
2022/10/10 08:52:33;;;;;;;1.70;1.60;;;;;;;;;;5072892;28;20044;-65
2022/10/10 08:55:00;;;;;;;1.85;1.75;;;;;;;;;;5073211;28;20086;-65
2022/10/10 08:57:32;;;;;;;1.63;1.52;;;;;;;;;;5073565;28;20418;-65
2022/10/10 09:00:00;;;;;;;3.45;2.20;;;;;;;;;;5076382;28;20082;-65
2022/10/10 09:02:33;;;;;;;2.30;1.92;;;;;;;;;;5076667;28;20025;-66
2022/10/10 09:04:58;;;;;;;2.05;1.90;;;;;;;;;;5076891;28;20028;-65
2022/10/10 09:07:28;;;;;;;2.22;1.85;;;;;;;;;;5091874;28;20535;-65
2022/10/10 09:10:01;;;;;;;2.20;2.00;;;;;;;;;;5076288;28;20471;-66
2022/10/10 09:12:33;;;;;;;1.60;1.50;;;;;;;;;;5076522;28;20043;-66
2022/10/10 09:14:58;;;;;;;3.10;2.17;;;;;;;;;;5076691;28;20154;-65
2022/10/10 09:17:39;;;;;;;2.55;2.20;;;;;;;;;;5076154;28;20103;-66
2022/10/10 09:20:20;;;;;;;2.15;1.63;;;;;;;;;;5076282;28;20029;-66
2022/10/10 09:23:04;;;;;;;5.75;1.90;;;;;;;;;;5076350;28;20074;-64
2022/10/10 09:25:37;;;;;;;5.07;2.15;;;;;;;;;;5076018;28;20071;-66
2022/10/10 09:28:06;;;;;;;2.47;1.92;;;;;;;;;;5076525;28;20029;-65
2022/10/10 09:30:33;;;;;;;2.20;2.00;;;;;;;;;;5075901;28;20035;-65
2022/10/10 09:33:08;;;;;;;2.67;1.90;;;;;;;;;;5075838;28;20485;-66
2022/10/10 09:35:36;;;;;;;2.28;2.08;;;;;;;;;;5076088;28;20032;-66
2022/10/10 09:38:16;;;;;;;2.72;2.00;;;;;;;;;;5075760;28;20024;-65
2022/10/10 09:40:44;;;;;;;2.63;1.98;;;;;;;;;;5091129;28;20028;-64
2022/10/10 09:43:19;;;;;;;2.13;1.92;;;;;;;;;;5091728;28;20452;-66
2022/10/10 09:45:51;;;;;;;3.50;2.20;;;;;;;;;;5074445;28;20031;-65
2022/10/10 09:48:17;;;;;;;2.97;2.08;;;;;;;;;;5075802;28;20028;-65
2022/10/10 09:50:43;;;;;;;2.80;2.45;;;;;;;;;;5075334;28;20098;-66
2022/10/10 09:53:12;;;;;;;5.45;2.25;;;;;;;;;;5074274;28;20394;-65
2022/10/10 09:55:38;;;;;;;3.67;2.10;;;;;;;;;;5090906;28;20047;-65
2022/10/10 09:58:12;;;;;;;2.67;2.38;;;;;;;;;;5075326;28;20467;-64
2022/10/10 10:00:37;;;;;;;3.38;2.50;;;;;;;;;;5075495;28;20086;-65
2022/10/10 10:03:13;;;;;;;4.22;2.70;;;;;;;;;;5075254;28;20009;-66
2022/10/10 10:05:40;;;;;;;4.25;2.38;;;;;;;;;;5075161;28;20040;-65
2022/10/10 10:08:16;;;;;;;3.28;2.15;;;;;;;;;;5075450;28;20459;-65
2022/10/10 10:10:42;;;;;;;2.65;2.40;;;;;;;;;;5074290;28;20037;-64
2022/10/10 10:13:11;;;;;;;6.00;2.72;;;;;;;;;;5075605;28;20020;-65
2022/10/10 10:15:37;;;;;;;3.63;2.97;;;;;;;;;;5075079;28;20024;-65
2022/10/10 10:18:19;;;;;;;4.40;3.00;;;;;;;;;;5075515;28;20073;-65
2022/10/10 10:20:46;;;;;;;3.15;2.60;;;;;;;;;;5073970;28;20043;-65
2022/10/10 10:23:34;;;;;;;5.53;3.22;;;;;;;;;;5074861;28;20150;-64
2022/10/10 10:26:01;;;;;;;3.90;3.38;;;;;;;;;;5061515;28;20029;-64
2022/10/10 10:28:27;;;;;;;5.15;3.10;;;;;;;;;;5074740;28;20051;-66
2022/10/10 10:30:54;;;;;;;4.68;3.10;;;;;;;;;;5074699;28;20074;-65
2022/10/10 10:33:26;;;;;;;4.38;2.90;;;;;;;;;;5075164;28;20443;-65
2022/10/10 10:36:13;;;;;;;13.63;3.55;;;;;;;;;;5074572;28;20047;-65
2022/10/10 10:38:42;;;;;;;5.65;2.78;;;;;;;;;;5073604;28;20028;-65
2022/10/10 10:41:16;;;;;;;3.78;2.75;;;;;;;;;;5074767;28;20424;-65
2022/10/10 10:44:01;;;;;;;3.60;2.80;;;;;;;;;;5074446;28;20020;-65
2022/10/10 10:46:32;;;;;;;3.47;2.70;;;;;;;;;;5074951;28;20467;-65
2022/10/10 10:49:03;;;;;;;3.40;2.85;;;;;;;;;;5074569;28;20067;-64
2022/10/10 10:51:34;;;;;;;5.15;2.53;;;;;;;;;;5074028;28;20119;-65
2022/10/10 10:54:09;;;;;;;3.85;2.83;;;;;;;;;;5074533;28;20025;-64
2022/10/10 10:56:39;;;;;;;2.70;2.25;;;;;;;;;;5074478;28;20112;-65
2022/10/10 10:59:04;;;;;;;;;;;;;;;;;;5089959;28;20127;-65
2022/10/10 11:01:43;;;;;;;3.27;2.53;;;;;;;;;;5074152;28;19974;-64
2022/10/10 11:04:17;;;;;;;6.40;2.55;;;;;;;;;;5074601;28;20379;-65
2022/10/10 11:07:01;;;;;;;4.15;2.58;;;;;;;;;;5074338;28;20513;-65
2022/10/10 11:09:35;;;;;;;2.63;2.28;;;;;;;;;;5073988;28;20489;-65
2022/10/10 11:12:00;;;;;;;2.95;2.17;;;;;;;;;;5074218;28;20039;-66
2022/10/10 11:14:33;;;;;;;4.30;2.58;;;;;;;;;;5073968;28;20025;-66
2022/10/10 11:17:20;;;;;;;2.92;2.50;;;;;;;;;;5073914;28;20043;-66
2022/10/10 11:19:55;;;;;;;2.50;2.30;;;;;;;;;;5072881;28;20043;-64
2022/10/10 11:22:22;;;;;;;4.35;2.50;;;;;;;;;;5074061;28;20021;-64
2022/10/10 11:24:52;;;;;;;2.92;2.30;;;;;;;;;;5074375;28;20465;-66
2022/10/10 11:27:22;;;;;;;4.05;2.75;;;;;;;;;;5073782;28;20028;-65
2022/10/10 11:29:55;;;;;;;2.55;2.35;;;;;;;;;;5074067;28;20082;-65
2022/10/10 11:32:32;;;;;;;7.53;2.72;;;;;;;;;;5073975;28;20489;-64
2022/10/10 11:35:04;;;;;;;3.50;2.42;;;;;;;;;;5072810;28;20119;-64
2022/10/10 11:37:33;;;;;;;4.00;2.20;;;;;;;;;;5089123;28;20033;-66
2022/10/10 11:40:00;;;;;;;3.05;2.50;;;;;;;;;;5073587;28;20024;-65
2022/10/10 11:42:47;;;;;;;3.00;1.77;;;;;;;;;;5072279;28;20032;-65
2022/10/10 11:45:14;;;;;;;5.45;2.40;;;;;;;;;;5073866;28;20021;-66
2022/10/10 11:47:43;;;;;;;7.30;3.33;;;;;;;;;;5073590;28;20047;-70
2022/10/10 11:50:41;;;;;;;4.20;2.13;;;;;;;;;;5073588;28;20032;-71
2022/10/10 11:53:14;;;;;;;3.55;2.38;;;;;;;;;;5018716;28;20051;-70
2022/10/10 11:55:46;;;;;;;2.22;2.10;;;;;;;;;;5074007;28;20037;-70
2022/10/10 11:58:11;;;;;;;4.78;2.65;;;;;;;;;;5073703;28;20035;-71
2022/10/10 12:00:44;;;;;;;2.10;1.90;;;;;;;;;;5088880;28;20389;-70
2022/10/10 12:03:09;;;;;;;4.95;2.13;;;;;;;;;;5073641;28;20033;-71
2022/10/10 12:05:38;;;;;;;3.15;2.30;;;;;;;;;;5073427;28;20066;-70
2022/10/10 12:08:07;;;;;;;2.20;2.00;;;;;;;;;;5073390;28;20096;-71
2022/10/10 12:10:36;;;;;;;3.38;2.20;;;;;;;;;;5073649;28;20044;-70
2022/10/10 12:13:19;;;;;;;3.63;2.60;;;;;;;;;;5073584;28;20036;-70
2022/10/10 12:15:48;;;;;;;5.20;2.30;;;;;;;;;;5071968;28;20032;-64
2022/10/10 12:18:28;;;;;;;3.40;2.75;;;;;;;;;;5072373;28;20471;-65
2022/10/10 12:21:07;;;;;;;2.90;2.05;;;;;;;;;;5073462;28;20024;-65
2022/10/10 12:23:33;;;;;;;3.35;2.53;;;;;;;;;;5073477;28;20463;-64
2022/10/10 12:25:58;;;;;;;2.65;2.10;;;;;;;;;;5073171;28;20070;-64
2022/10/10 12:28:26;;;;;;;2.70;2.10;;;;;;;;;;5073226;28;20351;-64
2022/10/10 12:30:51;;;;;;;2.75;2.35;;;;;;;;;;5073351;28;20035;-64
2022/10/10 12:33:42;;;;;;;2.17;1.98;;;;;;;;;;5075199;28;20115;-65
2022/10/10 12:36:17;;;;;;;7.97;2.80;;;;;;;;;;5065180;28;20051;-65
2022/10/10 12:39:07;;;;;;;3.97;2.00;;;;;;;;;;5076978;28;20032;-65
2022/10/10 12:41:54;;;;;;;3.65;2.20;;;;;;;;;;5075865;28;20036;-64
2022/10/10 12:44:21;;;;;;;4.00;2.20;;;;;;;;;;5075621;28;20124;-65
2022/10/10 12:46:49;;;;;;;2.30;2.10;;;;;;;;;;5092238;28;20016;-66
2022/10/10 12:49:15;;;;;;;3.85;2.40;;;;;;;;;;5092161;28;20063;-64
2022/10/10 12:51:41;;;;;;;2.70;2.50;;;;;;;;;;5076628;28;20045;-64
2022/10/10 12:54:07;;;;;;;3.55;2.30;;;;;;;;;;5075232;28;20044;-64
2022/10/10 12:56:32;;;;;;;2.65;2.20;;;;;;;;;;5092182;28;20372;-64
2022/10/10 12:58:58;;;;;;;5.65;2.33;;;;;;;;;;5076368;28;20054;-65
2022/10/10 13:01:30;;;;;;;3.22;2.15;;;;;;;;;;5076752;28;20446;-64
2022/10/10 13:03:55;;;;;;;5.07;1.95;;;;;;;;;;5076403;28;20021;-65
2022/10/10 13:06:30;;;;;;;3.55;2.30;;;;;;;;;;5076389;28;20096;-65
2022/10/10 13:08:56;;;;;;;2.25;2.05;;;;;;;;;;5076604;28;20037;-65
2022/10/10 13:11:21;;;;;;;3.33;2.15;;;;;;;;;;5076253;28;20070;-71
2022/10/10 13:13:48;;;;;;;2.78;1.95;;;;;;;;;;5076150;28;20025;-70
2022/10/10 13:16:16;;;;;;;2.67;2.30;;;;;;;;;;5091646;28;20016;-71
2022/10/10 13:18:47;;;;;;;3.22;2.35;;;;;;;;;;5091627;28;20090;-70
2022/10/10 13:21:13;;;;;;;3.22;2.30;;;;;;;;;;5076090;28;20067;-70
2022/10/10 13:23:40;;;;;;;4.72;2.63;;;;;;;;;;5076300;28;20040;-70
2022/10/10 13:26:05;;;;;;;3.78;2.60;;;;;;;;;;5075857;28;20082;-71
2022/10/10 13:28:31;;;;;;;3.40;1.75;;;;;;;;;;5076268;28;20017;-70
2022/10/10 13:30:56;;;;;;;4.90;2.90;;;;;;;;;;5075086;28;20367;-71
2022/10/10 13:33:23;;;;;;;3.97;2.17;;;;;;;;;;5075863;28;20181;-72
2022/10/10 13:35:49;;;;;;;2.63;2.05;;;;;;;;;;5091427;28;20039;-71
2022/10/10 13:38:15;;;;;;;1.55;1.45;;;;;;;;;;5076101;28;20020;-71
2022/10/10 13:40:41;;;;;;;3.67;2.30;;;;;;;;;;5074669;28;20043;-71
2022/10/10 13:43:14;;;;;;;3.35;1.65;;;;;;;;;;5074447;28;20016;-66
2022/10/10 13:45:54;;;;;;;5.43;2.00;;;;;;;;;;5107143;22;20063;-69
2022/10/10 13:48:24;;;;;;;2.80;1.65;;;;;;;;;;5033917;28;20069;-65
2022/10/10 13:50:53;;;;;;;3.90;2.20;;;;;;;;;;5036151;28;20119;-64
2022/10/10 13:53:25;;;;;;;9.82;2.38;;;;;;;;;;5035888;28;20113;-65
2022/10/10 13:55:57;;;;;;;4.55;2.47;;;;;;;;;;5036052;28;20044;-65
2022/10/10 13:58:22;;;;;;;3.17;2.30;;;;;;;;;;5035730;28;20491;-65
2022/10/10 14:00:55;;;;;;;2.85;1.77;;;;;;;;;;5034159;28;20108;-65
2022/10/10 14:03:21;;;;;;;3.22;2.08;;;;;;;;;;5035658;28;20076;-64
2022/10/10 14:05:46;;;;;;;2.50;2.30;;;;;;;;;;5035336;28;20380;-64
2022/10/10 14:08:16;;;;;;;5.03;2.40;;;;;;;;;;5034912;28;20430;-64
2022/10/10 14:10:42;;;;;;;4.07;2.55;;;;;;;;;;5035318;28;20045;-65
2022/10/10 14:13:16;;;;;;;5.20;2.75;;;;;;;;;;5034756;28;20075;-66
2022/10/10 14:15:41;;;;;;;4.70;2.45;;;;;;;;;;5035672;28;20025;-64
2022/10/10 14:18:23;;;;;;;4.20;2.47;;;;;;;;;;5016619;28;20448;-65
2022/10/10 14:20:49;;;;;;;3.92;2.58;;;;;;;;;;5033612;28;20033;-64
2022/10/10 14:23:14;;;;;;;3.45;2.42;;;;;;;;;;5033613;28;20021;-65
2022/10/10 14:25:40;;;;;;;9.98;3.17;;;;;;;;;;5033631;28;20052;-64
2022/10/10 14:28:09;;;;;;;3.15;2.80;;;;;;;;;;5015750;28;20009;-64
2022/10/10 14:30:35;;;;;;;3.20;2.65;;;;;;;;;;5033471;28;20033;-64
2022/10/10 14:33:01;;;;;;;3.58;2.88;;;;;;;;;;5032695;28;20028;-65
2022/10/10 14:35:26;;;;;;;5.45;2.78;;;;;;;;;;5035021;28;20037;-65
2022/10/10 14:37:52;;;;;;;5.07;2.42;;;;;;;;;;5034996;28;20037;-65
2022/10/10 14:40:19;;;;;;;3.53;2.53;;;;;;;;;;5034008;28;20086;-64
2022/10/10 14:42:44;;;;;;;3.72;2.67;;;;;;;;;;5016869;28;20013;-65
2022/10/10 14:45:11;;;;;;;4.05;2.30;;;;;;;;;;5016705;28;20192;-65
2022/10/10 14:47:37;;;;;;;3.38;2.15;;;;;;;;;;5013446;28;20042;-64
2022/10/10 14:50:04;;;;;;;8.02;2.13;;;;;;;;;;5015006;28;20075;-64
2022/10/10 14:52:29;;;;;;;3.10;2.05;;;;;;;;;;5015004;28;20096;-64